Time;durP1;ratioP1;P1;durP2;ratioP2;P2;SDS_P1;SDS_P2;PMS_P1;PMS_P2;Temp;Humidity;BMP_temperature;BMP_pressure;BME280_temperature;BME280_humidity;BME280_pressure;Samples;Min_cycle;Max_cycle;Signal;HPM_P1;HPM_P2
2023/08/24 00:01:36;;;;;;;7.90;3.38;;;20.50;77.80;;;;;;9176159;19;20007;-77
2023/08/24 00:04:43;;;;;;;9.25;3.70;;;20.50;78.20;;;;;;9176827;19;20579;-74
2023/08/24 00:07:52;;;;;;;7.88;3.38;;;20.50;79.20;;;;;;9174780;19;20014;-76
2023/08/24 00:11:00;;;;;;;12.25;3.78;;;20.40;80.60;;;;;;9178078;19;20018;-74
2023/08/24 00:14:05;;;;;;;7.95;3.92;;;20.40;84.90;;;;;;9185490;19;20060;-74
2023/08/24 00:17:13;;;;;;;6.13;4.07;;;20.30;83.70;;;;;;9184982;19;20022;-74
2023/08/24 00:20:19;;;;;;;6.47;3.78;;;20.30;78.10;;;;;;9185388;19;20074;-73
2023/08/24 00:23:30;;;;;;;6.75;3.78;;;20.30;79.50;;;;;;9184794;19;20042;-74
2023/08/24 00:26:35;;;;;;;8.32;3.60;;;20.30;81.40;;;;;;9181752;19;20029;-72
2023/08/24 00:29:43;;;;;;;16.90;4.10;;;20.10;85.80;;;;;;9182861;19;20017;-73
2023/08/24 00:32:50;;;;;;;5.88;3.90;;;20.20;86.50;;;;;;9183775;19;20044;-73
2023/08/24 00:36:02;;;;;;;6.93;3.80;;;20.10;88.00;;;;;;9184239;19;20387;-77
2023/08/24 00:39:11;;;;;;;9.98;3.80;;;20.00;87.50;;;;;;9184251;19;20109;-72
2023/08/24 00:42:19;;;;;;;7.80;4.03;;;20.10;89.30;;;;;;9184523;19;20099;-78
2023/08/24 00:45:25;;;;;;;9.35;4.10;;;20.20;87.30;;;;;;9179206;19;20022;-76
2023/08/24 00:48:34;;;;;;;10.77;4.10;;;20.10;84.10;;;;;;9182059;19;20021;-75
2023/08/24 00:51:40;;;;;;;6.15;4.25;;;20.10;87.60;;;;;;9184543;19;20021;-77
2023/08/24 00:54:50;;;;;;;8.18;4.05;;;20.00;89.60;;;;;;9183687;19;20029;-75
2023/08/24 00:57:56;;;;;;;10.23;3.28;;;20.00;89.00;;;;;;9183400;19;20022;-76
2023/08/24 01:01:04;;;;;;;5.45;3.17;;;20.00;89.80;;;;;;9182328;19;20542;-77
2023/08/24 01:04:10;;;;;;;6.78;3.47;;;19.90;90.10;;;;;;9181170;19;20006;-78
2023/08/24 01:07:19;;;;;;;10.20;4.00;;;19.90;86.80;;;;;;9182717;19;20028;-73
2023/08/24 01:10:30;;;;;;;5.18;3.47;;;19.90;86.70;;;;;;9180716;19;20391;-74
2023/08/24 01:13:48;;;;;;;9.25;3.30;;;19.80;82.50;;;;;;9182896;19;20011;-77
2023/08/24 01:16:59;;;;;;;9.93;4.22;;;19.80;79.50;;;;;;9183248;19;20048;-76
2023/08/24 01:20:11;;;;;;;6.75;3.33;;;19.70;79.30;;;;;;9180589;19;20022;-74
2023/08/24 01:23:43;;;;;;;6.95;3.80;;;19.70;80.10;;;;;;9179279;19;20014;-74
2023/08/24 01:26:55;;;;;;;8.45;3.72;;;19.70;80.80;;;;;;9182765;19;20010;-71
2023/08/24 01:30:02;;;;;;;6.40;3.05;;;19.70;82.00;;;;;;9182531;19;20476;-76
2023/08/24 01:33:11;;;;;;;17.67;4.07;;;19.70;84.40;;;;;;9181918;19;20376;-72
2023/08/24 01:36:19;;;;;;;6.47;4.10;;;19.60;90.20;;;;;;9182238;19;20511;-75
2023/08/24 01:39:36;;;;;;;5.32;3.97;;;19.60;86.70;;;;;;9180055;19;20019;-73
2023/08/24 01:42:50;;;;;;;5.57;4.05;;;19.50;87.60;;;;;;9177677;19;20383;-76
2023/08/24 01:46:00;;;;;;;7.75;3.72;;;19.60;92.10;;;;;;9182166;19;20006;-76
2023/08/24 01:49:08;;;;;;;7.28;4.10;;;19.30;87.10;;;;;;9179307;19;20014;-77
2023/08/24 01:52:16;;;;;;;9.48;5.28;;;19.50;90.70;;;;;;9179399;19;20010;-78
2023/08/24 01:55:21;;;;;;;11.90;4.88;;;19.50;90.90;;;;;;9180779;19;20472;-75
2023/08/24 01:58:32;;;;;;;6.57;4.63;;;19.50;90.90;;;;;;9180607;19;20070;-78
2023/08/24 02:01:37;;;;;;;7.88;4.63;;;19.60;90.00;;;;;;9180699;19;20010;-78
2023/08/24 02:04:44;;;;;;;6.82;4.45;;;19.40;91.50;;;;;;9181091;19;20014;-74
2023/08/24 02:07:50;;;;;;;7.40;4.10;;;19.40;88.10;;;;;;9180628;19;20006;-76
2023/08/24 02:10:58;;;;;;;7.57;4.35;;;19.40;88.40;;;;;;9176948;19;20468;-77
2023/08/24 02:14:06;;;;;;;6.70;4.40;;;19.50;90.20;;;;;;9180725;19;20025;-77
2023/08/24 02:17:17;;;;;;;10.18;4.63;;;19.40;90.30;;;;;;9177472;19;20838;-73
2023/08/24 02:20:23;;;;;;;7.10;4.25;;;19.50;90.30;;;;;;9180005;19;20064;-73
2023/08/24 02:23:31;;;;;;;6.55;4.25;;;19.50;88.40;;;;;;9179659;19;20472;-78
2023/08/24 02:26:36;;;;;;;5.93;4.75;;;19.40;88.40;;;;;;9178589;19;20042;-75
2023/08/24 02:29:47;;;;;;;9.10;4.70;;;19.40;88.80;;;;;;9177742;19;20357;-76
2023/08/24 02:32:54;;;;;;;10.40;4.55;;;19.40;90.90;;;;;;9177151;19;20014;-75
2023/08/24 02:36:01;;;;;;;8.77;4.45;;;19.40;87.00;;;;;;9178370;19;20519;-73
2023/08/24 02:39:07;;;;;;;10.77;4.75;;;19.40;90.10;;;;;;9178089;19;20016;-75
2023/08/24 02:42:14;;;;;;;7.22;4.38;;;19.30;88.50;;;;;;9179786;19;20025;-75
2023/08/24 02:45:26;;;;;;;7.22;4.75;;;19.40;89.50;;;;;;9174623;19;20054;-77
2023/08/24 02:48:34;;;;;;;8.55;4.45;;;19.40;90.70;;;;;;9176552;19;20078;-75
2023/08/24 02:51:40;;;;;;;8.15;4.78;;;19.40;92.10;;;;;;9177206;19;20479;-76
2023/08/24 02:54:48;;;;;;;9.40;4.75;;;19.40;91.60;;;;;;9177989;19;20018;-75
2023/08/24 02:57:54;;;;;;;7.75;4.63;;;19.40;85.90;;;;;;9176841;19;20045;-71
2023/08/24 03:01:07;;;;;;;11.32;4.80;;;19.40;92.20;;;;;;9177497;19;20015;-77
2023/08/24 03:04:13;;;;;;;7.32;4.88;;;19.40;90.50;;;;;;9179050;19;20043;-75
2023/08/24 03:07:23;;;;;;;12.13;4.95;;;19.30;83.50;;;;;;9176648;19;20022;-75
2023/08/24 03:10:29;;;;;;;11.05;5.15;;;19.40;85.00;;;;;;9176329;19;20434;-73
2023/08/24 03:13:40;;;;;;;7.72;4.82;;;19.40;86.60;;;;;;9175588;19;20015;-77
2023/08/24 03:16:48;;;;;;;9.18;4.47;;;19.40;88.70;;;;;;9178500;19;20098;-76
2023/08/24 03:19:56;;;;;;;9.38;5.05;;;19.40;90.20;;;;;;9176444;19;21124;-78
2023/08/24 03:23:05;;;;;;;8.70;5.10;;;19.40;91.00;;;;;;9176640;19;20017;-73
2023/08/24 03:26:13;;;;;;;7.32;4.97;;;19.40;87.00;;;;;;9177558;19;20019;-77
2023/08/24 03:29:19;;;;;;;11.90;6.30;;;19.40;88.90;;;;;;9178176;19;20016;-79
2023/08/24 03:32:29;;;;;;;9.63;5.32;;;19.40;90.20;;;;;;9174132;19;20078;-72
2023/08/24 03:35:36;;;;;;;10.90;6.05;;;19.50;90.70;;;;;;9177055;19;20018;-74
2023/08/24 03:38:43;;;;;;;9.10;5.22;;;19.50;87.00;;;;;;9175564;19;20019;-75
2023/08/24 03:41:48;;;;;;;9.60;5.85;;;19.40;88.10;;;;;;9177218;19;20487;-75
2023/08/24 03:44:55;;;;;;;8.23;5.78;;;19.40;89.70;;;;;;9174911;19;20021;-75
2023/08/24 03:48:03;;;;;;;7.65;4.95;;;19.40;91.40;;;;;;9185295;19;20337;-75
2023/08/24 03:51:11;;;;;;;12.07;5.32;;;19.40;91.40;;;;;;9182657;19;20408;-72
2023/08/24 03:54:17;;;;;;;10.80;5.10;;;19.40;87.80;;;;;;9186771;19;20007;-75
2023/08/24 03:57:24;;;;;;;8.90;4.70;;;19.50;86.60;;;;;;9185459;19;20082;-75
2023/08/24 04:00:30;;;;;;;9.52;5.47;;;19.50;89.40;;;;;;9185180;19;20045;-73
2023/08/24 04:03:42;;;;;;;9.23;4.68;;;19.30;90.00;;;;;;9183675;19;20018;-74
2023/08/24 04:06:49;;;;;;;9.88;5.80;;;19.30;90.30;;;;;;9183413;19;20078;-75
2023/08/24 04:09:56;;;;;;;7.60;4.72;;;19.40;91.70;;;;;;9181861;19;20020;-72
2023/08/24 04:13:02;;;;;;;7.28;4.82;;;19.30;92.00;;;;;;9181802;19;20094;-77
2023/08/24 04:16:09;;;;;;;10.65;5.13;;;19.30;88.20;;;;;;9183336;19;20019;-75
2023/08/24 04:19:17;;;;;;;10.25;4.75;;;19.30;90.30;;;;;;9183870;19;20010;-77
2023/08/24 04:22:25;;;;;;;12.27;5.25;;;19.30;90.60;;;;;;9185007;19;20014;-75
2023/08/24 04:25:30;;;;;;;7.38;4.88;;;19.30;91.00;;;;;;9184861;19;20011;-75
2023/08/24 04:28:37;;;;;;;11.90;5.50;;;19.30;91.20;;;;;;9184492;19;20018;-74
2023/08/24 04:31:43;;;;;;;10.25;5.05;;;19.20;84.70;;;;;;9182983;19;20018;-73
2023/08/24 04:34:53;;;;;;;9.55;5.10;;;19.20;84.70;;;;;;9184458;19;20019;-73
2023/08/24 04:38:01;;;;;;;7.20;4.72;;;19.20;85.40;;;;;;9183179;19;20014;-74
2023/08/24 04:41:12;;;;;;;10.13;4.85;;;19.20;84.90;;;;;;9184345;19;20018;-75
2023/08/24 04:44:17;;;;;;;8.80;4.72;;;19.10;86.70;;;;;;9179528;19;20011;-74
2023/08/24 04:47:24;;;;;;;10.18;4.75;;;19.10;87.20;;;;;;9184382;19;20018;-73
2023/08/24 04:50:32;;;;;;;14.95;5.10;;;19.10;87.10;;;;;;9183712;19;20029;-75
2023/08/24 04:53:40;;;;;;;8.93;4.82;;;19.10;87.30;;;;;;9179628;19;20011;-76
2023/08/24 04:56:45;;;;;;;8.65;4.88;;;19.00;87.50;;;;;;9182257;19;20863;-77
2023/08/24 04:59:52;;;;;;;9.50;4.85;;;18.90;90.40;;;;;;9183413;19;20018;-74
2023/08/24 05:02:58;;;;;;;10.88;5.25;;;19.00;90.80;;;;;;9181533;19;20026;-76
2023/08/24 05:06:08;;;;;;;15.68;5.80;;;18.90;91.40;;;;;;9174213;19;20482;-70
2023/08/24 05:09:14;;;;;;;9.15;5.00;;;19.00;92.20;;;;;;9176472;19;20018;-70
2023/08/24 05:12:21;;;;;;;8.27;4.88;;;19.00;90.50;;;;;;9176382;19;20014;-69
2023/08/24 05:15:27;;;;;;;12.35;5.18;;;18.90;90.60;;;;;;9175958;19;20022;-68
2023/08/24 05:18:34;;;;;;;12.35;5.43;;;18.90;90.50;;;;;;9176688;19;20014;-68
2023/08/24 05:21:45;;;;;;;9.80;4.30;;;19.00;91.00;;;;;;9179950;19;20014;-68
2023/08/24 05:24:52;;;;;;;10.93;5.50;;;18.90;91.20;;;;;;9182234;19;20022;-67
2023/08/24 05:27:58;;;;;;;13.60;5.55;;;18.90;91.30;;;;;;9182457;19;20373;-69
2023/08/24 05:31:05;;;;;;;11.95;5.22;;;19.00;91.50;;;;;;9181988;19;20018;-68
2023/08/24 05:34:11;;;;;;;7.65;5.05;;;18.90;91.30;;;;;;9178761;19;20490;-68
2023/08/24 05:37:21;;;;;;;11.02;6.38;;;19.00;91.10;;;;;;9181703;19;20098;-67
2023/08/24 05:40:26;;;;;;;12.02;5.95;;;18.90;91.80;;;;;;9181929;19;20482;-68
2023/08/24 05:43:34;;;;;;;13.95;6.63;;;18.90;91.60;;;;;;9177480;19;20015;-67
2023/08/24 05:46:39;;;;;;;10.90;6.97;;;18.80;89.80;;;;;;9181192;19;20025;-68
2023/08/24 05:49:46;;;;;;;15.20;6.50;;;18.80;87.10;;;;;;9178549;19;20011;-68
2023/08/24 05:52:54;;;;;;;12.80;6.85;;;18.90;90.10;;;;;;9179819;19;20015;-68
2023/08/24 05:56:02;;;;;;;14.10;7.18;;;18.90;90.10;;;;;;9181017;19;20494;-68
2023/08/24 05:59:07;;;;;;;16.80;7.05;;;18.70;73.40;;;;;;9181394;19;20078;-67
2023/08/24 06:02:14;;;;;;;15.20;6.05;;;18.80;74.10;;;;;;9179336;19;20025;-67
2023/08/24 06:05:20;;;;;;;13.68;6.90;;;18.90;74.40;;;;;;9180477;19;20015;-68
2023/08/24 06:08:30;;;;;;;13.43;7.18;;;19.10;74.70;;;;;;9176338;19;20030;-68
2023/08/24 06:11:36;;;;;;;11.20;7.22;;;19.10;74.40;;;;;;9180433;19;20007;-68
2023/08/24 06:14:43;;;;;;;13.30;7.60;;;19.20;74.40;;;;;;9177950;19;20019;-69
2023/08/24 06:17:49;;;;;;;14.00;7.63;;;19.30;75.10;;;;;;9180191;19;20413;-68
2023/08/24 06:20:57;;;;;;;12.30;7.72;;;19.50;74.50;;;;;;9179731;19;20026;-69
2023/08/24 06:24:06;;;;;;;17.33;8.55;;;19.60;74.40;;;;;;9180367;19;20354;-68
2023/08/24 06:27:13;;;;;;;16.00;9.35;;;19.80;74.60;;;;;;9179984;19;20090;-68
2023/08/24 06:30:19;;;;;;;20.58;8.15;;;19.90;74.30;;;;;;9180264;19;20029;-68
2023/08/24 06:33:30;;;;;;;16.88;8.45;;;20.10;74.30;;;;;;9178093;19;20643;-69
2023/08/24 06:36:35;;;;;;;12.35;7.07;;;21.00;75.60;;;;;;9179659;19;20018;-67
2023/08/24 06:39:47;;;;;;;14.70;7.93;;;20.40;74.10;;;;;;9179083;19;20014;-69
2023/08/24 06:42:54;;;;;;;12.75;7.07;;;20.50;74.20;;;;;;9174339;19;20017;-70
2023/08/24 06:46:02;;;;;;;14.32;8.05;;;21.80;74.90;;;;;;9177750;19;20022;-69
2023/08/24 06:49:08;;;;;;;12.75;7.32;;;20.80;74.10;;;;;;9178380;19;20011;-68
2023/08/24 06:52:16;;;;;;;15.02;6.68;;;21.00;73.80;;;;;;9178199;19;20016;-70
2023/08/24 06:55:24;;;;;;;14.57;6.45;;;21.20;73.80;;;;;;9178832;19;20018;-68
2023/08/24 06:58:31;;;;;;;16.05;6.88;;;21.40;73.60;;;;;;9177273;19;20346;-69
2023/08/24 07:01:37;;;;;;;12.20;6.82;;;21.50;74.30;;;;;;9177939;19;20749;-69
2023/08/24 07:04:44;;;;;;;15.18;6.78;;;21.60;73.90;;;;;;9178623;19;20385;-69
2023/08/24 07:07:51;;;;;;;21.60;7.30;;;21.80;73.10;;;;;;9177764;19;20064;-68
2023/08/24 07:11:02;;;;;;;19.77;6.78;;;22.00;73.10;;;;;;9175971;19;20040;-67
2023/08/24 07:14:07;;;;;;;13.60;6.60;;;22.10;72.90;;;;;;9176042;19;20044;-68
2023/08/24 07:17:14;;;;;;;12.68;6.95;;;22.30;72.70;;;;;;9177448;19;20022;-69
2023/08/24 07:20:20;;;;;;;11.93;6.13;;;22.50;72.60;;;;;;9174863;19;20011;-68
2023/08/24 07:23:28;;;;;;;16.15;7.07;;;22.60;72.40;;;;;;9177897;19;20021;-67
2023/08/24 07:26:36;;;;;;;16.80;6.57;;;22.70;72.30;;;;;;9177262;19;20013;-68
2023/08/24 07:29:44;;;;;;;13.90;6.55;;;22.80;72.10;;;;;;9177953;19;20472;-68
2023/08/24 07:32:49;;;;;;;11.98;7.07;;;23.00;72.00;;;;;;9176611;19;20112;-68
2023/08/24 07:35:57;;;;;;;11.07;6.95;;;23.20;71.90;;;;;;9175539;19;20476;-68
2023/08/24 07:39:02;;;;;;;14.88;6.78;;;23.30;71.70;;;;;;9177050;19;20022;-69
2023/08/24 07:42:12;;;;;;;16.10;7.35;;;23.40;71.60;;;;;;9175298;19;20029;-70
2023/08/24 07:45:17;;;;;;;15.40;7.38;;;23.70;75.20;;;;;;9173579;19;20123;-69
2023/08/24 07:48:25;;;;;;;10.85;6.20;;;24.40;74.30;;;;;;9175671;19;20034;-68
2023/08/24 07:51:30;;;;;;;14.57;7.35;;;23.90;75.40;;;;;;9174772;19;20018;-69
2023/08/24 07:54:38;;;;;;;15.57;7.25;;;24.00;71.40;;;;;;9173914;19;20018;-69
2023/08/24 07:57:47;;;;;;;11.77;7.35;;;24.10;70.60;;;;;;9176474;19;20022;-70
2023/08/24 08:00:56;;;;;;;14.30;8.05;;;24.30;70.40;;;;;;9177021;19;20464;-70
2023/08/24 08:04:02;;;;;;;15.23;7.85;;;24.30;70.20;;;;;;9176696;19;20048;-70
2023/08/24 08:07:09;;;;;;;10.73;6.85;;;24.50;70.20;;;;;;9176616;19;20040;-70
2023/08/24 08:10:17;;;;;;;11.73;7.50;;;24.60;70.00;;;;;;9176139;19;20019;-69
2023/08/24 08:13:27;;;;;;;15.85;7.10;;;24.60;72.20;;;;;;9175409;19;20025;-69
2023/08/24 08:16:38;;;;;;;13.02;7.15;;;24.80;69.70;;;;;;9175805;19;20023;-72
2023/08/24 08:19:46;;;;;;;9.43;6.75;;;24.90;72.70;;;;;;9175611;19;20086;-69
2023/08/24 08:22:52;;;;;;;11.80;6.50;;;25.00;72.60;;;;;;9175740;19;20052;-70
2023/08/24 08:25:59;;;;;;;12.25;6.45;;;25.40;72.60;;;;;;9175432;19;20294;-68
2023/08/24 08:29:08;;;;;;;12.52;6.63;;;25.20;70.00;;;;;;9175097;19;20025;-69
2023/08/24 08:32:15;;;;;;;13.25;6.85;;;25.40;69.20;;;;;;9180474;19;20026;-71
2023/08/24 08:35:21;;;;;;;11.02;6.47;;;25.50;69.10;;;;;;9182171;19;20015;-69
2023/08/24 08:38:28;;;;;;;12.07;6.60;;;25.60;69.00;;;;;;9184189;19;20649;-70
2023/08/24 08:41:40;;;;;;;16.48;5.97;;;25.70;68.90;;;;;;9183670;19;20006;-70
2023/08/24 08:44:54;;;;;;;9.30;5.70;;;25.90;68.80;;;;;;9179175;19;20025;-69
2023/08/24 08:48:01;;;;;;;11.88;6.43;;;26.10;68.60;;;;;;9183120;19;20065;-69
2023/08/24 08:51:09;;;;;;;10.48;5.57;;;26.30;68.50;;;;;;9182142;19;20464;-70
2023/08/24 08:54:15;;;;;;;11.68;6.18;;;26.50;68.40;;;;;;9181227;19;20418;-69
2023/08/24 08:57:28;;;;;;;9.50;5.63;;;26.60;71.70;;;;;;9184100;19;20490;-70
2023/08/24 09:00:40;;;;;;;15.85;5.95;;;26.80;70.80;;;;;;9183511;19;20026;-70
2023/08/24 09:03:48;;;;;;;10.82;5.70;;;27.00;67.70;;;;;;9180982;19;20026;-71
2023/08/24 09:06:56;;;;;;;14.13;6.00;;;27.20;69.80;;;;;;9184839;19;20111;-71
2023/08/24 09:10:03;;;;;;;10.73;6.28;;;27.30;69.40;;;;;;9183051;19;20006;-70
2023/08/24 09:13:09;;;;;;;16.08;5.97;;;27.60;69.40;;;;;;9182978;19;20018;-70
2023/08/24 09:16:20;;;;;;;7.15;5.20;;;27.60;68.40;;;;;;9180079;19;20010;-71
2023/08/24 09:19:31;;;;;;;12.38;6.55;;;27.70;67.10;;;;;;9182427;19;20018;-70
2023/08/24 09:22:41;;;;;;;11.68;5.18;;;27.80;67.90;;;;;;9180571;19;20033;-70
2023/08/24 09:25:49;;;;;;;10.75;5.60;;;28.00;69.30;;;;;;9182501;19;20011;-71
2023/08/24 09:28:56;;;;;;;8.82;5.38;;;28.00;65.90;;;;;;9182568;19;20029;-70
2023/08/24 09:32:05;;;;;;;9.98;5.53;;;28.20;65.80;;;;;;9182220;19;20056;-71
2023/08/24 09:35:16;;;;;;;7.85;5.38;;;28.20;65.20;;;;;;9179529;19;20019;-71
2023/08/24 09:38:23;;;;;;;11.60;5.30;;;28.30;65.30;;;;;;9181703;19;20025;-71
2023/08/24 09:41:40;;;;;;;18.23;5.63;;;28.40;65.10;;;;;;9180403;19;20459;-71
2023/08/24 09:44:47;;;;;;;17.42;5.95;;;28.50;64.70;;;;;;9177543;19;20006;-72
2023/08/24 09:47:57;;;;;;;13.43;5.43;;;28.80;65.20;;;;;;9178031;19;20022;-71
2023/08/24 09:51:06;;;;;;;8.82;5.10;;;28.70;64.60;;;;;;9181611;19;20496;-70
2023/08/24 09:54:14;;;;;;;6.90;4.95;;;28.70;64.50;;;;;;9180951;19;20015;-70
2023/08/24 09:57:21;;;;;;;8.70;5.18;;;28.80;64.40;;;;;;9181069;19;20025;-73
2023/08/24 10:00:30;;;;;;;9.20;4.82;;;28.90;64.10;;;;;;9181069;19;20029;-70
2023/08/24 10:03:42;;;;;;;10.57;5.78;;;29.00;63.80;;;;;;9179452;19;20014;-72
2023/08/24 10:06:54;;;;;;;13.18;5.10;;;29.10;63.60;;;;;;9180435;19;20010;-71
2023/08/24 10:10:03;;;;;;;18.45;5.43;;;29.10;63.40;;;;;;9180232;19;20134;-72
2023/08/24 10:13:21;;;;;;;10.60;4.95;;;29.30;63.30;;;;;;9178358;19;20523;-69
2023/08/24 10:16:29;;;;;;;7.63;4.50;;;29.30;63.00;;;;;;9176645;19;20014;-70
2023/08/24 10:19:39;;;;;;;25.58;5.30;;;29.40;63.00;;;;;;9178118;19;20011;-70
2023/08/24 10:22:45;;;;;;;9.90;4.80;;;29.50;62.70;;;;;;9180141;19;20034;-70
2023/08/24 10:25:54;;;;;;;7.05;4.60;;;29.70;62.90;;;;;;9179841;19;20598;-70
2023/08/24 10:29:00;;;;;;;11.05;5.15;;;29.70;62.50;;;;;;9180089;19;20041;-70
2023/08/24 10:32:09;;;;;;;12.60;4.78;;;29.80;62.20;;;;;;9179928;19;20018;-70
2023/08/24 10:35:18;;;;;;;12.10;4.80;;;29.90;61.90;;;;;;9178870;19;20017;-70
2023/08/24 10:38:30;;;;;;;15.02;4.50;;;30.00;61.60;;;;;;9179564;19;20014;-70
2023/08/24 10:41:51;;;;;;;9.88;4.05;;;30.20;61.40;;;;;;9178911;19;20488;-71
2023/08/24 10:44:58;;;;;;;9.77;5.07;;;30.30;61.00;;;;;;9171935;19;20018;-70
2023/08/24 10:48:04;;;;;;;11.00;4.47;;;30.30;60.90;;;;;;9175810;19;20030;-71
2023/08/24 10:51:26;;;;;;;7.97;3.75;;;30.50;60.80;;;;;;9176262;19;20022;-71
2023/08/24 10:54:33;;;;;;;7.28;3.97;;;30.60;60.50;;;;;;9176967;19;20082;-70
2023/08/24 10:57:42;;;;;;;8.48;4.00;;;30.60;60.40;;;;;;9178565;19;20014;-71
2023/08/24 11:00:51;;;;;;;7.82;3.60;;;30.70;60.30;;;;;;9178011;19;20015;-70
2023/08/24 11:03:59;;;;;;;11.52;4.47;;;30.70;60.20;;;;;;9178283;19;20015;-70
2023/08/24 11:07:07;;;;;;;9.40;4.82;;;30.80;60.10;;;;;;9178002;19;20014;-70
2023/08/24 11:10:15;;;;;;;11.63;3.70;;;30.90;60.00;;;;;;9177539;19;20015;-70
2023/08/24 11:13:22;;;;;;;9.05;3.90;;;30.90;60.00;;;;;;9177863;19;20086;-70
2023/08/24 11:16:41;;;;;;;10.48;3.92;;;30.90;59.90;;;;;;9175641;19;20019;-70
2023/08/24 11:19:51;;;;;;;4.63;2.97;;;30.90;59.60;;;;;;9177889;19;20015;-71
2023/08/24 11:23:01;;;;;;;8.10;3.47;;;31.10;62.70;;;;;;9177735;19;20018;-70
2023/08/24 11:26:06;;;;;;;10.63;3.92;;;31.00;62.00;;;;;;9177976;19;20497;-71
2023/08/24 11:29:18;;;;;;;7.55;3.92;;;31.00;60.00;;;;;;9177707;19;20022;-71
2023/08/24 11:32:23;;;;;;;9.15;3.30;;;31.00;64.00;;;;;;9177635;19;20025;-72
2023/08/24 11:35:31;;;;;;;15.10;4.18;;;31.10;59.00;;;;;;9176678;19;20020;-71
2023/08/24 11:38:43;;;;;;;9.43;3.47;;;31.10;58.90;;;;;;9177602;19;20048;-71
2023/08/24 11:42:02;;;;;;;8.43;3.60;;;31.20;61.50;;;;;;9174084;19;20464;-71
2023/08/24 11:45:15;;;;;;;12.02;3.88;;;31.30;61.20;;;;;;9172925;19;20014;-71
2023/08/24 11:48:29;;;;;;;7.50;3.55;;;31.30;60.60;;;;;;9175844;19;20029;-71
2023/08/24 11:51:35;;;;;;;9.73;3.50;;;;;;;;;;9177028;19;20038;-70
2023/08/24 11:55:00;;;;;;;6.90;3.28;;;31.30;57.80;;;;;;9176555;19;20014;-71
2023/08/24 11:58:06;;;;;;;11.80;2.75;;;31.20;58.00;;;;;;9176209;19;20021;-71
2023/08/24 12:01:15;;;;;;;8.25;2.70;;;31.20;60.20;;;;;;9174639;19;20018;-71
2023/08/24 12:04:20;;;;;;;6.38;2.70;;;31.20;64.20;;;;;;9174925;19;20077;-71
2023/08/24 12:07:28;;;;;;;15.98;4.40;;;31.20;62.20;;;;;;9182011;19;20010;-70
2023/08/24 12:10:44;;;;;;;12.07;4.05;;;31.10;59.90;;;;;;9185093;19;20725;-71
2023/08/24 12:13:53;;;;;;;10.85;3.83;;;30.90;60.30;;;;;;9185203;19;20014;-71
2023/08/24 12:16:59;;;;;;;4.72;2.53;;;31.10;58.20;;;;;;9182921;19;20014;-71
2023/08/24 12:20:12;;;;;;;5.35;2.50;;;31.00;58.40;;;;;;9184861;19;20060;-71
2023/08/24 12:23:17;;;;;;;5.28;2.20;;;30.70;57.60;;;;;;9184424;19;20018;-71
2023/08/24 12:26:28;;;;;;;4.72;2.58;;;30.90;57.60;;;;;;9185269;19;20015;-71
2023/08/24 12:29:33;;;;;;;5.40;2.30;;;30.90;57.60;;;;;;9184484;19;20019;-71
2023/08/24 12:32:51;;;;;;;8.30;2.88;;;30.80;58.20;;;;;;9181835;19;20033;-71
2023/08/24 12:35:58;;;;;;;4.80;2.60;;;30.80;57.40;;;;;;9182901;19;20094;-71
2023/08/24 12:39:07;;;;;;;17.90;6.35;;;30.70;57.50;;;;;;9184704;19;20014;-71
2023/08/24 12:42:15;;;;;;;8.02;3.30;;;30.70;57.70;;;;;;9183825;19;20015;-72
2023/08/24 12:45:22;;;;;;;7.53;2.75;;;30.70;57.50;;;;;;9177984;19;20018;-71
2023/08/24 12:48:28;;;;;;;10.40;4.50;;;30.70;57.50;;;;;;9182061;19;20086;-72
2023/08/24 12:51:35;;;;;;;10.52;2.90;;;30.70;57.50;;;;;;9183080;19;20053;-72
2023/08/24 12:54:41;;;;;;;7.07;2.63;;;30.70;57.60;;;;;;9183782;19;20018;-72
2023/08/24 12:57:51;;;;;;;6.80;2.78;;;30.60;57.50;;;;;;9178749;19;20019;-70
2023/08/24 13:00:56;;;;;;;9.95;2.88;;;30.60;57.40;;;;;;9181432;19;20014;-71
2023/08/24 13:04:04;;;;;;;11.43;3.85;;;30.60;57.40;;;;;;9183484;19;20022;-71
2023/08/24 13:07:09;;;;;;;8.90;2.80;;;30.60;60.70;;;;;;9183432;19;20018;-72
2023/08/24 13:10:16;;;;;;;5.05;2.33;;;30.60;57.70;;;;;;9183177;19;20475;-71
2023/08/24 13:13:24;;;;;;;7.82;2.13;;;30.60;59.20;;;;;;9182465;19;20021;-71
2023/08/24 13:16:32;;;;;;;5.90;2.15;;;30.40;57.20;;;;;;9180268;19;20022;-71
2023/08/24 13:19:37;;;;;;;5.07;2.25;;;30.40;57.60;;;;;;9181893;19;20022;-71
2023/08/24 13:22:45;;;;;;;8.95;2.40;;;30.30;58.70;;;;;;9182377;19;20022;-71
2023/08/24 13:25:50;;;;;;;5.43;2.30;;;30.20;57.10;;;;;;9182214;19;20007;-72
2023/08/24 13:29:01;;;;;;;3.97;2.33;;;30.20;57.10;;;;;;9180654;19;20002;-71
2023/08/24 13:32:07;;;;;;;4.93;2.50;;;30.20;57.10;;;;;;9180492;19;20019;-70
2023/08/24 13:35:14;;;;;;;6.78;2.55;;;30.20;57.20;;;;;;9181999;19;20033;-70
2023/08/24 13:38:20;;;;;;;4.10;2.53;;;30.10;57.20;;;;;;9179550;19;20015;-71
2023/08/24 13:41:27;;;;;;;3.80;2.40;;;30.10;57.30;;;;;;9181381;19;20019;-71
2023/08/24 13:44:35;;;;;;;7.45;2.45;;;30.00;57.40;;;;;;9176626;19;20026;-70
2023/08/24 13:47:42;;;;;;;4.93;2.20;;;30.10;59.80;;;;;;9180631;19;20384;-70
2023/08/24 13:50:53;;;;;;;4.65;2.13;;;29.90;57.40;;;;;;9181830;19;20018;-70
2023/08/24 13:54:00;;;;;;;6.07;2.50;;;29.90;57.50;;;;;;9179926;19;20023;-71
2023/08/24 13:57:06;;;;;;;7.32;2.75;;;29.80;57.60;;;;;;9180970;19;20048;-70
2023/08/24 14:00:18;;;;;;;7.18;2.75;;;29.80;61.50;;;;;;9181356;19;20018;-71
2023/08/24 14:03:23;;;;;;;5.32;2.55;;;29.70;57.70;;;;;;9180898;19;20452;-72
2023/08/24 14:06:31;;;;;;;5.43;2.97;;;29.60;57.80;;;;;;9181148;19;20026;-71
2023/08/24 14:09:37;;;;;;;9.18;2.50;;;29.60;57.90;;;;;;9181103;19;20081;-71
2023/08/24 14:12:54;;;;;;;4.82;2.50;;;29.50;58.10;;;;;;9178883;19;20015;-71
2023/08/24 14:16:02;;;;;;;4.53;2.70;;;29.50;61.60;;;;;;9178722;19;20527;-71
2023/08/24 14:19:09;;;;;;;10.15;3.40;;;29.40;59.30;;;;;;9178159;19;20029;-71
2023/08/24 14:22:15;;;;;;;16.90;3.30;;;29.20;58.20;;;;;;9176874;19;20022;-70
2023/08/24 14:25:22;;;;;;;5.30;3.08;;;29.20;58.40;;;;;;9180323;19;20098;-71
2023/08/24 14:28:51;;;;;;;8.85;2.90;;;29.10;58.50;;;;;;9176292;19;20056;-70
2023/08/24 14:32:01;;;;;;;8.40;3.00;;;28.80;59.40;;;;;;9179079;19;20388;-72
2023/08/24 14:35:07;;;;;;;9.25;3.30;;;29.00;60.00;;;;;;9175159;19;20018;-69
2023/08/24 14:38:15;;;;;;;15.70;3.40;;;28.80;58.80;;;;;;9177369;19;20011;-68
2023/08/24 14:41:21;;;;;;;7.50;3.50;;;28.80;59.20;;;;;;9177893;19;20021;-67
2023/08/24 14:44:28;;;;;;;13.57;3.72;;;28.70;59.30;;;;;;9173089;19;20020;-70
2023/08/24 14:47:39;;;;;;;9.93;3.80;;;28.60;59.30;;;;;;9177163;19;20460;-71
2023/08/24 14:50:46;;;;;;;9.23;4.63;;;28.50;60.20;;;;;;9178305;19;20018;-71
2023/08/24 14:53:52;;;;;;;11.57;3.88;;;28.40;59.50;;;;;;9177763;19;20050;-70
2023/08/24 14:57:00;;;;;;;12.60;4.05;;;28.40;60.30;;;;;;9174729;19;20010;-70
2023/08/24 15:00:09;;;;;;;10.05;3.97;;;28.40;61.70;;;;;;9177979;19;20106;-70
2023/08/24 15:03:20;;;;;;;10.35;4.18;;;28.20;61.40;;;;;;9178427;19;20021;-71
2023/08/24 15:06:26;;;;;;;10.82;4.40;;;28.20;60.60;;;;;;9178087;19;20010;-69
2023/08/24 15:09:33;;;;;;;6.65;4.05;;;28.10;60.10;;;;;;9177905;19;20033;-68
2023/08/24 15:12:39;;;;;;;12.07;4.85;;;28.10;60.30;;;;;;9177779;19;20030;-69
2023/08/24 15:15:49;;;;;;;10.23;4.70;;;28.00;60.30;;;;;;9177164;19;20011;-73
2023/08/24 15:18:57;;;;;;;9.75;5.00;;;27.90;60.70;;;;;;9176586;19;20022;-74
2023/08/24 15:22:05;;;;;;;15.93;4.43;;;27.90;60.80;;;;;;9176306;19;20021;-73
2023/08/24 15:25:11;;;;;;;11.02;5.03;;;27.90;61.50;;;;;;9174588;19;20821;-74
2023/08/24 15:28:18;;;;;;;8.20;4.88;;;28.00;61.50;;;;;;9172810;19;20006;-75
2023/08/24 15:31:24;;;;;;;11.18;5.00;;;27.40;61.20;;;;;;9177666;19;20078;-75
2023/08/24 15:34:34;;;;;;;8.63;4.38;;;27.80;62.50;;;;;;9169994;19;20010;-73
2023/08/24 15:37:42;;;;;;;10.52;4.50;;;27.80;61.20;;;;;;9149175;19;20018;-75
2023/08/24 15:40:55;;;;;;;12.07;4.95;;;27.80;61.90;;;;;;9155293;19;20025;-71
2023/08/24 15:44:00;;;;;;;12.10;5.32;;;27.70;62.10;;;;;;9157466;19;20165;-73
2023/08/24 15:47:08;;;;;;;13.88;5.20;;;27.70;61.50;;;;;;9158840;19;20621;-74
2023/08/24 15:50:16;;;;;;;9.27;5.65;;;27.60;61.50;;;;;;9163252;19;20138;-75
2023/08/24 15:53:24;;;;;;;8.90;4.80;;;27.60;61.90;;;;;;9166302;19;20800;-74
2023/08/24 15:56:30;;;;;;;16.73;6.22;;;27.50;61.80;;;;;;9165815;19;20056;-73
2023/08/24 15:59:37;;;;;;;16.38;5.03;;;27.40;61.80;;;;;;9165889;19;20538;-74
2023/08/24 16:02:45;;;;;;;7.45;4.97;;;27.40;63.20;;;;;;9170623;19;20119;-71
2023/08/24 16:05:58;;;;;;;11.80;6.20;;;27.40;62.70;;;;;;9170342;19;20007;-74
2023/08/24 16:09:05;;;;;;;10.75;5.38;;;28.70;63.20;;;;;;9168839;19;20021;-70
2023/08/24 16:12:14;;;;;;;11.50;4.90;;;27.20;62.20;;;;;;9166884;19;20447;-70
2023/08/24 16:15:20;;;;;;;9.35;5.43;;;27.20;62.30;;;;;;9171539;19;20029;-73